createdAt,value
2022-10-22T00:00:54.400Z,93.50
2022-10-22T00:03:22.229Z,93.40
2022-10-22T00:05:49.617Z,93.40
2022-10-22T00:08:17.016Z,93.40
2022-10-22T00:10:44.409Z,93.30
2022-10-22T00:13:12.327Z,93.20
2022-10-22T00:15:39.774Z,93.20
2022-10-22T00:18:07.226Z,93.20
2022-10-22T00:20:34.603Z,93.20
2022-10-22T00:23:01.999Z,93.10
2022-10-22T00:25:29.452Z,93.10
2022-10-22T00:27:56.976Z,93.10
2022-10-22T00:30:24.332Z,93.20
2022-10-22T00:32:51.750Z,93.30
2022-10-22T00:35:19.121Z,93.30
2022-10-22T00:37:46.666Z,93.20
2022-10-22T00:40:14.452Z,93.20
2022-10-22T00:42:42.248Z,93.20
2022-10-22T00:45:10.004Z,93.20
2022-10-22T00:47:37.375Z,93.20
2022-10-22T00:50:11.844Z,93.20
2022-10-22T00:52:40.057Z,93.20
2022-10-22T00:55:08.320Z,93.20
2022-10-22T00:57:36.270Z,93.20
2022-10-22T01:00:04.633Z,93.20
2022-10-22T01:02:32.091Z,93.20
2022-10-22T01:04:59.598Z,93.20
2022-10-22T01:07:27.000Z,93.20
2022-10-22T01:10:13.187Z,93.10
2022-10-22T01:12:46.673Z,93.10
2022-10-22T01:15:21.014Z,93.10
2022-10-22T01:18:09.351Z,93.10
2022-10-22T01:20:52.266Z,93.00
2022-10-22T01:23:38.596Z,93.10
2022-10-22T01:26:21.706Z,93.20
2022-10-22T01:28:52.314Z,93.30
2022-10-22T01:31:21.733Z,93.60
2022-10-22T01:33:50.079Z,93.70
2022-10-22T01:36:17.810Z,93.80
2022-10-22T01:38:45.756Z,93.80
2022-10-22T01:41:13.681Z,93.80
2022-10-22T01:43:41.061Z,93.70
2022-10-22T01:46:10.620Z,93.60
2022-10-22T01:48:56.881Z,93.60
2022-10-22T01:51:24.363Z,93.60
2022-10-22T01:54:00.835Z,93.70
2022-10-22T01:56:32.391Z,93.60
2022-10-22T01:59:03.042Z,93.60
2022-10-22T02:01:33.557Z,93.60
2022-10-22T02:04:03.509Z,93.50
2022-10-22T02:06:32.178Z,93.50
2022-10-22T02:09:00.536Z,93.50
2022-10-22T02:11:28.036Z,93.40
2022-10-22T02:13:58.007Z,93.40
2022-10-22T02:16:33.823Z,93.40
2022-10-22T02:19:03.632Z,93.40
2022-10-22T02:21:31.206Z,93.30
2022-10-22T02:23:58.869Z,93.40
2022-10-22T02:26:37.842Z,93.30
2022-10-22T02:29:13.798Z,93.30
2022-10-22T02:31:43.363Z,93.30
2022-10-22T02:34:14.143Z,93.30
2022-10-22T02:36:45.506Z,93.30
2022-10-22T02:41:44.359Z,93.20
2022-10-22T02:44:11.713Z,93.20
2022-10-22T02:46:39.636Z,93.10
2022-10-22T02:49:06.999Z,93.20
2022-10-22T02:51:34.457Z,93.40
2022-10-22T02:54:01.911Z,93.40
2022-10-22T02:56:29.380Z,93.30
2022-10-22T02:58:56.769Z,93.30
2022-10-22T03:01:24.188Z,93.30
2022-10-22T03:03:51.629Z,93.30
2022-10-22T03:06:19.153Z,93.30
2022-10-22T03:08:46.689Z,93.30
2022-10-22T03:11:14.125Z,93.20
2022-10-22T03:13:41.606Z,92.90
2022-10-22T03:16:09.063Z,92.70
2022-10-22T03:18:36.427Z,92.70
2022-10-22T03:21:11.271Z,92.60
2022-10-22T03:23:40.253Z,92.70
2022-10-22T03:26:08.194Z,92.70
2022-10-22T03:28:36.341Z,92.80
2022-10-22T03:31:03.761Z,92.70
2022-10-22T03:33:31.067Z,92.60
2022-10-22T03:35:58.975Z,92.60
2022-10-22T03:38:26.495Z,92.50
2022-10-22T03:40:53.828Z,92.50
2022-10-22T03:43:21.238Z,92.50
2022-10-22T03:45:48.572Z,92.40
2022-10-22T03:48:16.223Z,92.40
2022-10-22T03:50:43.667Z,92.40
2022-10-22T03:53:11.175Z,92.30
2022-10-22T03:55:40.620Z,92.20
2022-10-22T03:58:07.973Z,92.30
2022-10-22T04:00:35.891Z,92.20
2022-10-22T04:03:03.555Z,92.30
2022-10-22T04:05:32.245Z,92.30
2022-10-22T04:07:59.851Z,92.30
2022-10-22T04:10:27.346Z,92.30
2022-10-22T04:12:54.795Z,92.30
2022-10-22T04:15:22.425Z,92.40
2022-10-22T04:17:49.940Z,92.30
2022-10-22T04:20:17.499Z,92.10
2022-10-22T04:22:44.983Z,92.00
2022-10-22T04:25:12.485Z,91.90
2022-10-22T04:27:40.313Z,91.80
2022-10-22T04:30:08.212Z,91.80
2022-10-22T04:32:35.812Z,91.50
2022-10-22T04:35:03.467Z,91.50
2022-10-22T04:37:32.948Z,91.40
2022-10-22T04:40:00.474Z,91.40
2022-10-22T04:42:27.906Z,91.40
2022-10-22T04:44:55.435Z,91.60
2022-10-22T04:47:22.827Z,91.60
2022-10-22T04:49:50.152Z,91.60
2022-10-22T04:52:17.543Z,91.60
2022-10-22T04:54:45.201Z,91.60
2022-10-22T04:57:12.986Z,91.70
2022-10-22T04:59:40.731Z,91.70
2022-10-22T05:02:08.294Z,91.70
2022-10-22T05:04:35.988Z,91.80
2022-10-22T05:07:03.327Z,91.80
2022-10-22T05:09:30.744Z,91.80
2022-10-22T05:11:58.157Z,91.90
2022-10-22T05:14:26.212Z,92.00
2022-10-22T05:16:54.057Z,92.00
2022-10-22T05:19:24.177Z,92.00
2022-10-22T05:21:52.432Z,92.10
2022-10-22T05:24:19.807Z,92.20
2022-10-22T05:26:49.810Z,92.20
2022-10-22T05:29:17.268Z,92.30
2022-10-22T05:31:44.628Z,92.30
2022-10-22T05:34:12.175Z,92.30
2022-10-22T05:36:39.658Z,92.30
2022-10-22T05:39:07.198Z,92.30
2022-10-22T05:41:35.756Z,92.40
2022-10-22T05:44:03.397Z,92.50
2022-10-22T05:46:33.259Z,92.60
2022-10-22T05:49:05.737Z,92.70
2022-10-22T05:51:34.858Z,92.70
2022-10-22T05:54:03.305Z,92.70
2022-10-22T05:56:32.105Z,92.70
2022-10-22T05:59:00.100Z,92.70
2022-10-22T06:01:31.515Z,92.80
2022-10-22T06:04:00.431Z,92.80
2022-10-22T06:06:34.136Z,92.80
2022-10-22T06:09:04.542Z,92.80
2022-10-22T06:11:34.989Z,92.70
2022-10-22T06:14:03.490Z,92.60
2022-10-22T06:16:31.357Z,92.70
2022-10-22T06:18:59.516Z,92.60
2022-10-22T06:21:26.995Z,92.60
2022-10-22T06:23:56.168Z,92.60
2022-10-22T06:26:23.810Z,92.60
2022-10-22T06:28:51.187Z,92.60
2022-10-22T06:31:21.668Z,92.60
2022-10-22T06:33:49.049Z,92.60
2022-10-22T06:36:17.511Z,92.60
2022-10-22T06:38:44.935Z,92.80
2022-10-22T06:41:13.945Z,92.90
2022-10-22T06:43:42.001Z,93.00
2022-10-22T06:46:10.099Z,93.00
2022-10-22T06:48:38.111Z,93.00
2022-10-22T06:51:07.239Z,93.10
2022-10-22T06:53:35.653Z,93.00
2022-10-22T06:56:07.182Z,93.10
2022-10-22T06:58:34.723Z,93.10
2022-10-22T07:01:06.443Z,93.00
2022-10-22T07:03:33.929Z,93.00
2022-10-22T07:06:01.883Z,93.00
2022-10-22T07:08:29.713Z,93.00
2022-10-22T07:10:59.171Z,93.00
2022-10-22T07:13:26.694Z,93.00
2022-10-22T07:15:55.102Z,93.00
2022-10-22T07:18:22.770Z,93.00
2022-10-22T07:20:50.247Z,93.00
2022-10-22T07:23:17.753Z,93.10
2022-10-22T07:25:45.298Z,93.20
2022-10-22T07:28:13.227Z,93.10
2022-10-22T07:30:40.675Z,93.20
2022-10-22T07:33:08.024Z,93.20
2022-10-22T07:35:36.525Z,93.20
2022-10-22T07:38:04.165Z,93.20
2022-10-22T07:40:31.717Z,93.20
2022-10-22T07:42:59.152Z,93.30
2022-10-22T07:45:26.573Z,93.20
2022-10-22T07:47:53.964Z,93.20
2022-10-22T07:50:21.377Z,93.20
2022-10-22T07:52:48.957Z,93.20
2022-10-22T07:55:16.361Z,93.10
2022-10-22T07:57:43.907Z,93.00
2022-10-22T08:00:11.689Z,92.90
2022-10-22T08:02:42.248Z,92.90
2022-10-22T08:05:10.158Z,92.80
2022-10-22T08:07:37.655Z,92.70
2022-10-22T08:10:05.622Z,92.60
2022-10-22T08:12:33.082Z,92.50
2022-10-22T08:15:01.123Z,92.40
2022-10-22T08:17:28.687Z,92.30
2022-10-22T08:19:56.111Z,92.20
2022-10-22T08:22:23.506Z,92.00
2022-10-22T08:24:50.898Z,91.80
2022-10-22T08:27:18.302Z,91.70
2022-10-22T08:29:45.848Z,91.60
2022-10-22T08:32:13.314Z,91.40
2022-10-22T08:34:40.789Z,91.20
2022-10-22T08:37:08.719Z,91.00
2022-10-22T08:39:36.461Z,90.80
2022-10-22T08:42:22.421Z,90.80
2022-10-22T08:44:52.853Z,90.70
2022-10-22T08:47:22.362Z,90.70
2022-10-22T08:49:50.332Z,90.60
2022-10-22T08:52:18.893Z,90.60
2022-10-22T08:54:46.347Z,90.40
2022-10-22T08:57:36.897Z,90.30
2022-10-22T09:00:16.000Z,90.20
2022-10-22T09:02:58.510Z,90.10
2022-10-22T09:05:28.952Z,89.80
2022-10-22T09:07:58.086Z,89.40
2022-10-22T09:10:27.418Z,89.50
2022-10-22T09:12:54.780Z,89.40
2022-10-22T09:15:22.669Z,89.50
2022-10-22T09:18:09.084Z,89.30
2022-10-22T09:20:49.556Z,89.10
2022-10-22T09:23:21.455Z,89.00
2022-10-22T09:25:49.262Z,88.90
2022-10-22T09:28:16.952Z,88.90
2022-10-22T09:30:45.799Z,88.80
2022-10-22T09:33:15.588Z,88.70
2022-10-22T09:35:49.166Z,88.50
2022-10-22T09:38:19.080Z,88.50
2022-10-22T09:40:50.986Z,88.60
2022-10-22T09:43:18.891Z,88.40
2022-10-22T09:45:46.903Z,88.30
2022-10-22T09:48:26.511Z,88.20
2022-10-22T09:51:06.249Z,88.20
2022-10-22T09:53:37.994Z,88.10
2022-10-22T09:56:10.372Z,88.00
2022-10-22T09:58:41.952Z,87.90
2022-10-22T10:01:15.991Z,87.40
2022-10-22T10:03:43.606Z,87.20
2022-10-22T10:06:12.550Z,87.10
2022-10-22T10:08:39.984Z,86.90
2022-10-22T10:11:13.515Z,86.70
2022-10-22T10:13:48.003Z,86.70
2022-10-22T10:16:24.696Z,86.30
2022-10-22T10:19:01.679Z,86.10
2022-10-22T10:21:29.258Z,85.80
2022-10-22T10:24:15.134Z,85.80
2022-10-22T10:26:50.627Z,85.80
2022-10-22T10:29:18.231Z,85.60
2022-10-22T10:31:57.796Z,85.40
2022-10-22T10:34:43.637Z,85.20
2022-10-22T10:37:17.619Z,85.20
2022-10-22T10:39:51.280Z,85.20
2022-10-22T10:42:44.871Z,85.10
2022-10-22T10:45:24.849Z,85.10
2022-10-22T10:47:55.182Z,84.80
2022-10-22T10:50:41.540Z,84.80
2022-10-22T10:53:18.115Z,84.60
2022-10-22T10:56:08.814Z,84.30
2022-10-22T10:58:42.340Z,84.40
2022-10-22T11:01:20.078Z,84.60
2022-10-22T11:04:06.093Z,84.60
2022-10-22T11:06:34.289Z,84.40
2022-10-22T11:09:20.610Z,84.50
2022-10-22T11:11:50.452Z,84.30
2022-10-22T11:14:22.652Z,84.10
2022-10-22T11:16:55.664Z,84.20
2022-10-22T11:19:50.293Z,83.90
2022-10-22T11:22:19.373Z,83.40
2022-10-22T11:24:52.946Z,83.20
2022-10-22T11:27:20.394Z,82.80
2022-10-22T11:29:52.299Z,82.00
2022-10-22T11:32:21.037Z,81.90
2022-10-22T11:34:50.344Z,81.20
2022-10-22T11:37:18.261Z,81.30
2022-10-22T11:39:53.881Z,80.90
2022-10-22T11:42:33.266Z,80.00
2022-10-22T11:45:00.783Z,80.20
2022-10-22T11:47:34.276Z,80.00
2022-10-22T11:50:27.806Z,80.10
2022-10-22T11:52:55.623Z,80.50
2022-10-22T11:55:43.417Z,80.60
2022-10-22T11:58:26.888Z,80.50
2022-10-22T12:01:09.905Z,79.30
2022-10-22T12:03:43.817Z,79.20
2022-10-22T12:06:12.206Z,79.00
2022-10-22T12:08:48.828Z,79.30
2022-10-22T12:11:22.931Z,79.80
2022-10-22T12:13:53.503Z,79.90
2022-10-22T12:19:30.314Z,80.00
2022-10-22T12:21:59.825Z,79.90
2022-10-22T12:24:30.839Z,79.80
2022-10-22T12:26:58.278Z,79.70
2022-10-22T12:29:27.728Z,79.70
2022-10-22T12:31:56.159Z,80.00
2022-10-22T12:34:24.619Z,80.20
2022-10-22T12:36:53.192Z,80.50
2022-10-22T12:39:53.599Z,80.60
2022-10-22T12:42:22.626Z,80.60
2022-10-22T12:44:54.745Z,80.40
2022-10-22T12:47:22.253Z,80.40
2022-10-22T12:49:50.630Z,79.80
2022-10-22T12:52:19.969Z,79.60
2022-10-22T12:54:49.116Z,79.60
2022-10-22T12:57:17.938Z,79.50
2022-10-22T12:59:49.875Z,79.60
2022-10-22T13:02:22.376Z,79.80
2022-10-22T13:05:08.688Z,79.90
2022-10-22T13:07:41.710Z,79.80
2022-10-22T13:10:26.650Z,79.70
2022-10-22T13:12:55.369Z,79.80
2022-10-22T13:15:32.036Z,79.70
2022-10-22T13:18:27.179Z,79.70
2022-10-22T13:21:01.842Z,79.60
2022-10-22T13:24:03.508Z,79.60
2022-10-22T13:26:38.939Z,79.40
2022-10-22T13:29:14.867Z,79.30
2022-10-22T13:31:47.023Z,79.10
2022-10-22T13:34:22.487Z,79.10
2022-10-22T13:39:59.497Z,79.20
2022-10-22T13:42:27.282Z,78.90
2022-10-22T13:44:54.868Z,78.60
2022-10-22T13:47:25.619Z,78.20
2022-10-22T13:52:38.702Z,77.80
2022-10-22T13:55:13.579Z,77.70
2022-10-22T13:57:41.167Z,77.50
2022-10-22T14:00:11.679Z,77.30
2022-10-22T14:02:40.304Z,77.20
2022-10-22T14:05:09.559Z,77.30
2022-10-22T14:07:37.599Z,77.10
2022-10-22T14:10:15.537Z,77.00
2022-10-22T14:13:15.669Z,76.80
2022-10-22T14:16:03.637Z,76.40
2022-10-22T14:18:33.045Z,75.20
2022-10-22T14:21:05.008Z,75.00
2022-10-22T14:23:32.631Z,75.10
2022-10-22T14:26:07.977Z,75.00
2022-10-22T14:28:41.253Z,75.30
2022-10-22T14:31:09.647Z,75.60
2022-10-22T14:33:37.038Z,75.40
2022-10-22T14:36:04.439Z,75.40
2022-10-22T14:38:54.626Z,75.60
2022-10-22T14:41:23.822Z,75.80
2022-10-22T14:47:08.831Z,76.20
2022-10-22T14:50:11.569Z,76.60
2022-10-22T14:53:10.620Z,76.80
2022-10-22T14:58:55.836Z,76.70
2022-10-22T15:04:31.784Z,77.10
2022-10-22T15:06:59.344Z,77.30
2022-10-22T15:09:26.721Z,77.60
2022-10-22T15:11:54.239Z,77.80
2022-10-22T15:14:21.812Z,77.80
2022-10-22T15:16:49.191Z,78.00
2022-10-22T15:19:16.595Z,78.10
2022-10-22T15:21:43.936Z,78.30
2022-10-22T15:24:11.390Z,78.30
2022-10-22T15:26:38.798Z,78.40
2022-10-22T15:29:06.372Z,78.50
2022-10-22T15:31:50.634Z,78.50
2022-10-22T15:34:19.237Z,78.50
2022-10-22T15:36:46.603Z,78.40
2022-10-22T15:39:13.987Z,78.40
2022-10-22T15:41:41.424Z,78.50
2022-10-22T15:44:14.354Z,78.60
2022-10-22T15:46:41.852Z,78.30
2022-10-22T15:49:09.351Z,78.30
2022-10-22T15:51:36.709Z,78.40
2022-10-22T15:54:09.193Z,78.30
2022-10-22T15:56:37.590Z,78.40
2022-10-22T15:59:05.096Z,78.60
2022-10-22T16:01:34.025Z,78.70
2022-10-22T16:04:02.966Z,78.90
2022-10-22T16:06:32.162Z,79.10
2022-10-22T16:09:00.489Z,79.20
2022-10-22T16:11:28.452Z,79.40
2022-10-22T16:13:56.902Z,79.70
2022-10-22T16:16:25.780Z,80.00
2022-10-22T16:18:53.721Z,80.30
2022-10-22T16:21:22.025Z,80.70
2022-10-22T16:23:49.736Z,81.00
2022-10-22T16:26:18.260Z,81.30
2022-10-22T16:28:46.677Z,81.50
2022-10-22T16:31:15.878Z,81.60
2022-10-22T16:33:46.512Z,81.80
2022-10-22T16:36:18.125Z,82.00
2022-10-22T16:38:46.245Z,82.10
2022-10-22T16:41:21.345Z,82.30
2022-10-22T16:43:50.129Z,82.50
2022-10-22T16:46:21.383Z,82.70
2022-10-22T16:48:49.845Z,82.80
2022-10-22T16:51:19.007Z,83.00
2022-10-22T16:53:46.506Z,83.10
2022-10-22T16:56:15.400Z,83.20
2022-10-22T16:58:47.283Z,83.40
2022-10-22T17:01:18.005Z,83.50
2022-10-22T17:03:45.762Z,83.70
2022-10-22T17:06:13.359Z,83.90
2022-10-22T17:08:41.533Z,84.00
2022-10-22T17:11:09.935Z,84.10
2022-10-22T17:13:37.752Z,84.40
2022-10-22T17:16:06.849Z,84.50
2022-10-22T17:18:34.974Z,84.70
2022-10-22T17:21:03.707Z,84.80
2022-10-22T17:23:31.215Z,84.90
2022-10-22T17:25:59.851Z,85.20
2022-10-22T17:28:28.158Z,85.30
2022-10-22T17:31:22.029Z,85.30
2022-10-22T17:33:50.784Z,85.40
2022-10-22T17:36:18.666Z,85.50
2022-10-22T17:38:48.385Z,85.60
2022-10-22T17:41:19.831Z,85.70
2022-10-22T17:43:47.637Z,85.80
2022-10-22T17:46:17.368Z,85.90
2022-10-22T17:48:45.115Z,86.00
2022-10-22T17:51:13.461Z,86.10
2022-10-22T17:53:42.982Z,86.20
2022-10-22T17:56:12.307Z,86.30
2022-10-22T17:58:39.730Z,86.40
2022-10-22T18:01:07.577Z,86.50
2022-10-22T18:03:35.343Z,86.60
2022-10-22T18:06:07.408Z,86.70
2022-10-22T18:08:34.931Z,86.90
2022-10-22T18:11:10.117Z,86.90
2022-10-22T18:13:37.696Z,86.90
2022-10-22T18:16:05.526Z,87.00
2022-10-22T18:18:33.705Z,87.00
2022-10-22T18:21:01.500Z,87.00
2022-10-22T18:23:28.938Z,87.00
2022-10-22T18:25:56.420Z,87.00
2022-10-22T18:28:23.859Z,87.00
2022-10-22T18:30:51.346Z,87.00
2022-10-22T18:33:19.487Z,87.00
2022-10-22T18:35:47.050Z,87.10
2022-10-22T18:38:14.515Z,87.20
2022-10-22T18:40:48.619Z,87.30
2022-10-22T18:43:16.875Z,87.30
2022-10-22T18:45:45.592Z,87.40
2022-10-22T18:48:14.063Z,87.40
2022-10-22T18:50:41.520Z,87.50
2022-10-22T18:53:09.311Z,87.60
2022-10-22T18:55:38.480Z,87.70
2022-10-22T18:58:05.984Z,87.80
2022-10-22T19:00:35.111Z,87.90
2022-10-22T19:03:03.352Z,88.10
2022-10-22T19:05:31.133Z,88.20
2022-10-22T19:07:59.187Z,88.30
2022-10-22T19:10:26.703Z,88.40
2022-10-22T19:12:54.273Z,88.40
2022-10-22T19:15:21.682Z,88.40
2022-10-22T19:17:49.145Z,88.40
2022-10-22T19:20:16.502Z,88.40
2022-10-22T19:22:44.005Z,88.30
2022-10-22T19:25:12.133Z,88.40
2022-10-22T19:27:40.884Z,88.50
2022-10-22T19:30:08.780Z,88.50
2022-10-22T19:32:36.168Z,88.50
2022-10-22T19:35:03.904Z,88.60
2022-10-22T19:37:31.600Z,88.60
2022-10-22T19:39:59.153Z,88.70
2022-10-22T19:42:26.615Z,88.80
2022-10-22T19:44:53.993Z,89.00
2022-10-22T19:47:21.949Z,89.00
2022-10-22T19:49:49.351Z,89.10
2022-10-22T19:52:16.813Z,89.20
2022-10-22T19:54:45.696Z,89.30
2022-10-22T19:57:17.743Z,89.40
2022-10-22T19:59:45.803Z,89.40
2022-10-22T20:02:15.030Z,89.40
2022-10-22T20:04:45.625Z,89.50
2022-10-22T20:07:15.425Z,89.60
2022-10-22T20:09:42.857Z,89.60
2022-10-22T20:12:10.495Z,89.60
2022-10-22T20:14:37.989Z,89.70
2022-10-22T20:17:05.551Z,89.80
2022-10-22T20:19:33.093Z,89.80
2022-10-22T20:22:00.461Z,89.80
2022-10-22T20:24:27.899Z,89.80
2022-10-22T20:26:55.357Z,89.80
2022-10-22T20:29:22.681Z,89.80
2022-10-22T20:31:50.144Z,89.80
2022-10-22T20:34:17.507Z,89.90
2022-10-22T20:36:45.052Z,89.90
2022-10-22T20:39:14.545Z,89.90
2022-10-22T20:41:42.322Z,90.00
2022-10-22T20:44:12.743Z,90.00
2022-10-22T20:46:43.700Z,90.00
2022-10-22T20:49:13.568Z,90.00
2022-10-22T20:51:41.123Z,90.20
2022-10-22T20:54:09.159Z,90.20
2022-10-22T20:56:37.947Z,90.40
2022-10-22T20:59:05.955Z,90.40
2022-10-22T21:01:35.718Z,90.40
2022-10-22T21:04:03.442Z,90.40
2022-10-22T21:06:30.995Z,90.40
2022-10-22T21:08:58.452Z,90.50
2022-10-22T21:11:26.083Z,90.50
2022-10-22T21:13:53.519Z,90.40
2022-10-22T21:16:21.245Z,90.50
2022-10-22T21:18:48.806Z,90.50
2022-10-22T21:21:20.078Z,90.50
2022-10-22T21:23:47.793Z,90.50
2022-10-22T21:26:15.477Z,90.50
2022-10-22T21:28:43.072Z,90.60
2022-10-22T21:31:10.940Z,90.70
2022-10-22T21:33:39.266Z,90.60
2022-10-22T21:36:10.870Z,90.70
2022-10-22T21:38:38.555Z,90.70
2022-10-22T21:41:06.560Z,90.70
2022-10-22T21:43:34.184Z,90.70
2022-10-22T21:46:08.976Z,90.70
2022-10-22T21:48:37.670Z,90.70
2022-10-22T21:51:12.668Z,90.80
2022-10-22T21:53:40.497Z,90.80
2022-10-22T21:56:08.590Z,90.80
2022-10-22T21:58:36.060Z,90.80
2022-10-22T22:01:03.746Z,90.90
2022-10-22T22:03:31.178Z,90.80
2022-10-22T22:06:02.655Z,90.90
2022-10-22T22:08:30.188Z,91.00
2022-10-22T22:11:01.956Z,91.00
2022-10-22T22:13:29.485Z,91.00
2022-10-22T22:16:04.092Z,91.10
2022-10-22T22:18:32.438Z,91.10
2022-10-22T22:21:00.035Z,91.30
2022-10-22T22:23:27.529Z,91.30
2022-10-22T22:25:58.596Z,91.40
2022-10-22T22:28:26.301Z,91.40
2022-10-22T22:30:53.650Z,91.40
2022-10-22T22:33:21.151Z,91.40
2022-10-22T22:35:48.693Z,91.30
2022-10-22T22:38:16.073Z,91.30
2022-10-22T22:40:43.823Z,91.30
2022-10-22T22:43:11.403Z,91.30
2022-10-22T22:45:40.771Z,91.30
2022-10-22T22:48:08.202Z,91.30
2022-10-22T22:50:36.321Z,91.30
2022-10-22T22:53:03.777Z,91.30
2022-10-22T22:55:32.050Z,91.30
2022-10-22T22:57:59.495Z,91.40
2022-10-22T23:00:27.095Z,91.30
2022-10-22T23:02:55.552Z,91.30
2022-10-22T23:05:23.034Z,91.30
2022-10-22T23:07:50.608Z,91.30
2022-10-22T23:10:18.158Z,91.30
2022-10-22T23:12:45.684Z,91.40
2022-10-22T23:15:13.115Z,91.40
2022-10-22T23:17:40.573Z,91.40
2022-10-22T23:20:08.204Z,91.40
2022-10-22T23:22:35.578Z,91.40
2022-10-22T23:25:03.013Z,91.40
2022-10-22T23:27:30.435Z,91.40
2022-10-22T23:29:57.832Z,91.30
2022-10-22T23:32:25.190Z,91.30
2022-10-22T23:34:52.679Z,91.30
2022-10-22T23:37:20.056Z,91.20
2022-10-22T23:39:47.428Z,91.20
2022-10-22T23:42:14.826Z,91.30
2022-10-22T23:44:42.310Z,91.30
2022-10-22T23:47:09.784Z,91.30
2022-10-22T23:49:37.162Z,91.30
2022-10-22T23:52:04.677Z,91.30
2022-10-22T23:54:32.076Z,91.30
2022-10-22T23:56:59.417Z,91.30
2022-10-22T23:59:26.853Z,91.30
